Time;durP1;ratioP1;P1;durP2;ratioP2;P2;SDS_P1;SDS_P2;PMS_P1;PMS_P2;Temp;Humidity;BMP_temperature;BMP_pressure;BME280_temperature;BME280_humidity;BME280_pressure;Samples;Min_cycle;Max_cycle;Signal;HPM_P1;HPM_P2
2021/08/01 00:01:34;;;;;;;15.02;4.90;;;;;;;27.76;34.35;100296.59;5025256;28;20399;-70
2021/08/01 00:04:03;;;;;;;16.63;4.70;;;;;;;27.80;34.05;100297.25;5021365;28;21479;-70
2021/08/01 00:06:30;;;;;;;17.23;5.88;;;;;;;27.80;33.88;100298.13;5015315;28;20492;-70
2021/08/01 00:08:58;;;;;;;23.70;6.32;;;;;;;27.78;34.01;100300.06;5010568;28;20107;-69
2021/08/01 00:11:26;;;;;;;13.82;5.43;;;;;;;27.83;33.43;100299.78;5010368;28;20034;-69
2021/08/01 00:13:53;;;;;;;21.25;6.10;;;;;;;27.82;33.53;100295.34;5010894;28;20038;-69
2021/08/01 00:16:23;;;;;;;18.08;5.53;;;;;;;27.62;33.71;100297.47;5015140;28;20507;-68
2021/08/01 00:18:51;;;;;;;18.70;5.90;;;;;;;27.55;33.88;100309.66;5024726;28;20483;-69
2021/08/01 00:21:21;;;;;;;14.30;5.38;;;;;;;27.58;34.06;100295.00;5015696;28;20046;-67
2021/08/01 00:23:48;;;;;;;18.15;5.45;;;;;;;27.58;33.81;100306.72;5015358;28;20054;-70
2021/08/01 00:26:16;;;;;;;16.45;5.63;;;;;;;27.51;33.78;100296.31;5015438;28;20575;-70
2021/08/01 00:28:43;;;;;;;19.42;6.00;;;;;;;27.51;33.97;100291.78;5033422;28;20033;-70
2021/08/01 00:31:11;;;;;;;18.60;5.50;;;;;;;27.52;34.06;100295.38;5032447;28;20045;-70
2021/08/01 00:33:38;;;;;;;19.02;5.30;;;;;;;27.47;33.99;100283.94;5015020;28;20057;-69
2021/08/01 00:36:06;;;;;;;17.58;5.25;;;;;;;27.50;33.80;100289.19;5031825;28;20033;-70
2021/08/01 00:38:35;;;;;;;19.92;5.60;;;;;;;27.46;33.92;100293.03;5033469;28;20640;-69
2021/08/01 00:41:03;;;;;;;15.30;4.65;;;;;;;27.45;33.75;100291.28;5015482;28;20088;-69
2021/08/01 00:43:32;;;;;;;17.73;5.13;;;;;;;27.45;33.59;100292.16;5021488;28;20077;-70
2021/08/01 00:46:01;;;;;;;13.18;4.88;;;;;;;27.43;33.71;100288.69;5028696;28;20109;-69
2021/08/01 00:48:28;;;;;;;18.67;6.38;;;;;;;27.43;33.43;100288.69;5025726;28;20096;-69
2021/08/01 00:50:56;;;;;;;16.10;6.90;;;;;;;27.36;33.49;100293.63;5032135;28;20064;-70
2021/08/01 00:53:24;;;;;;;13.05;5.18;;;;;;;27.34;33.72;100291.94;5033711;28;20111;-69
2021/08/01 00:55:53;;;;;;;14.95;4.95;;;;;;;27.35;33.52;100288.28;5016416;28;20046;-69
2021/08/01 00:58:20;;;;;;;18.33;4.63;;;;;;;27.28;33.64;100292.31;5015086;28;20045;-69
2021/08/01 01:01:07;;;;;;;14.43;4.88;;;;;;;27.23;34.08;100287.19;5020800;28;20103;-69
2021/08/01 01:03:46;;;;;;;19.02;5.57;;;;;;;27.21;33.86;100285.53;5030441;28;20053;-70
2021/08/01 01:06:21;;;;;;;15.98;5.72;;;;;;;27.14;33.76;100289.56;5030379;28;20044;-69
2021/08/01 01:08:56;;;;;;;18.10;5.38;;;;;;;27.12;34.03;100288.78;5032088;28;20037;-69
2021/08/01 01:11:32;;;;;;;21.52;5.53;;;;;;;27.18;34.12;100275.72;5033352;28;20049;-69
2021/08/01 01:14:01;;;;;;;14.63;4.35;;;;;;;27.20;33.98;100275.66;5031955;28;20045;-69
2021/08/01 01:16:37;;;;;;;13.40;4.30;;;;;;;27.14;34.03;100282.31;5031581;28;20125;-70
2021/08/01 01:19:05;;;;;;;19.10;4.72;;;;;;;27.05;33.80;100273.84;5026765;28;20038;-69
2021/08/01 01:21:58;;;;;;;13.95;4.80;;;;;;;27.08;33.62;100287.25;5025559;28;20048;-70
2021/08/01 01:24:28;;;;;;;22.38;6.45;;;;;;;27.05;33.63;100296.41;5013514;28;20050;-69
2021/08/01 01:27:05;;;;;;;15.88;4.30;;;;;;;26.98;33.55;100292.31;5013498;28;20399;-70
2021/08/01 01:29:40;;;;;;;16.67;5.50;;;;;;;27.01;33.67;100291.28;5013265;28;20092;-70
2021/08/01 01:32:11;;;;;;;16.85;5.25;;;;;;;27.00;33.89;100292.25;5029635;28;20040;-69
2021/08/01 01:34:56;;;;;;;17.85;5.63;;;;;;;26.98;33.52;100301.31;5020574;28;20080;-70
2021/08/01 01:37:26;;;;;;;12.80;5.15;;;;;;;26.95;33.63;100306.94;5018584;28;20072;-69
2021/08/01 01:39:55;;;;;;;15.32;4.47;;;;;;;26.94;33.67;100297.06;5031745;28;20037;-69
2021/08/01 01:42:24;;;;;;;18.83;5.05;;;;;;;26.94;33.88;100301.59;5032562;28;20045;-69
2021/08/01 01:44:52;;;;;;;15.98;5.28;;;;;;;26.90;33.94;100300.94;5032066;28;20499;-68
2021/08/01 01:47:20;;;;;;;17.08;4.85;;;;;;;26.86;34.15;100298.44;5025729;28;20038;-67
2021/08/01 01:49:49;;;;;;;17.45;5.03;;;;;;;26.88;34.25;100310.06;5014187;28;20490;-69
2021/08/01 01:52:18;;;;;;;16.05;4.97;;;;;;;26.86;33.78;100312.00;5013118;28;20125;-69
2021/08/01 01:54:48;;;;;;;17.55;6.30;;;;;;;26.82;33.57;100307.72;5013157;28;20112;-68
2021/08/01 01:57:16;;;;;;;14.68;5.30;;;;;;;26.78;33.81;100312.44;5012830;28;20076;-69
2021/08/01 01:59:45;;;;;;;12.57;5.15;;;;;;;26.83;34.06;100315.78;5013134;28;20038;-69
2021/08/01 02:02:14;;;;;;;19.10;4.97;;;;;;;26.73;34.29;100317.25;5012535;28;20034;-69
2021/08/01 02:04:41;;;;;;;20.63;4.80;;;;;;;26.69;34.04;100323.81;5013482;28;20483;-69
2021/08/01 02:07:10;;;;;;;13.02;4.78;;;;;;;26.63;34.24;100316.06;5013513;28;20034;-69
2021/08/01 02:09:47;;;;;;;12.50;4.18;;;;;;;26.67;34.44;100320.31;5020755;28;20587;-69
2021/08/01 02:12:19;;;;;;;20.13;5.30;;;;;;;26.64;34.18;100317.81;5012022;28;20053;-69
2021/08/01 02:14:56;;;;;;;14.60;4.53;;;;;;;26.65;34.11;100321.38;5019670;28;20041;-69
2021/08/01 02:17:30;;;;;;;16.92;4.60;;;;;;;26.65;34.07;100315.97;5030338;28;20057;-69
2021/08/01 02:20:00;;;;;;;;;;;;;;;26.62;34.29;100318.84;5014425;28;20034;-68
2021/08/01 02:22:29;;;;;;;15.77;5.40;;;;;;;26.58;34.00;100320.88;5012235;28;19976;-69
2021/08/01 02:24:58;;;;;;;15.38;5.38;;;;;;;26.53;34.04;100318.41;5019738;28;20038;-69
2021/08/01 02:27:29;;;;;;;13.68;4.40;;;;;;;26.52;34.18;100322.06;5032256;28;20446;-68
2021/08/01 02:29:58;;;;;;;16.50;4.38;;;;;;;26.53;33.93;100320.22;5022680;28;20045;-68
2021/08/01 02:32:26;;;;;;;16.42;4.88;;;;;;;26.55;34.08;100326.44;5025290;28;20064;-68
2021/08/01 02:34:55;;;;;;;13.02;4.72;;;;;;;26.52;34.34;100337.44;5015148;28;20045;-68
2021/08/01 02:37:24;;;;;;;27.70;5.85;;;;;;;26.51;34.11;100330.31;5012560;28;20583;-68
2021/08/01 02:39:54;;;;;;;14.82;4.60;;;;;;;26.41;34.41;100323.66;5012961;28;20033;-68
2021/08/01 02:42:24;;;;;;;16.40;5.00;;;;;;;26.34;34.46;100328.53;5030119;28;20076;-68
2021/08/01 02:44:58;;;;;;;17.52;4.60;;;;;;;26.34;34.77;100330.38;5021628;28;20040;-69
2021/08/01 02:47:26;;;;;;;11.30;4.47;;;;;;;26.37;34.66;100336.50;5024063;28;20088;-69
2021/08/01 02:49:55;;;;;;;12.70;4.75;;;;;;;26.34;34.59;100346.59;5024815;28;20048;-69
2021/08/01 02:52:28;;;;;;;16.02;4.88;;;;;;;26.30;34.98;100345.03;5029773;28;20410;-68
2021/08/01 02:54:57;;;;;;;21.38;5.53;;;;;;;26.33;34.85;100336.72;5029148;28;20037;-69
2021/08/01 02:57:27;;;;;;;15.60;5.00;;;;;;;26.38;34.81;100329.25;5011888;28;20038;-69
2021/08/01 02:59:59;;;;;;;15.00;5.00;;;;;;;26.33;34.86;100336.72;5026242;28;20037;-69
2021/08/01 03:02:27;;;;;;;14.80;4.63;;;;;;;26.31;35.27;100330.56;5031184;28;20049;-69
2021/08/01 03:04:55;;;;;;;16.20;5.22;;;;;;;26.33;35.27;100336.72;5030002;28;20492;-69
2021/08/01 03:07:22;;;;;;;16.10;5.40;;;;;;;26.25;35.03;100348.03;5031089;28;20046;-70
2021/08/01 03:09:53;;;;;;;23.70;6.10;;;;;;;26.22;35.08;100340.03;5012606;28;20041;-67
2021/08/01 03:12:20;;;;;;;17.17;4.40;;;;;;;26.26;34.76;100341.63;5024907;28;20052;-67
2021/08/01 03:14:48;;;;;;;15.45;5.95;;;;;;;26.30;34.58;100345.03;5031346;28;20037;-70
2021/08/01 03:17:17;;;;;;;15.23;5.55;;;;;;;26.30;34.62;100343.22;5026656;28;20064;-69
2021/08/01 03:19:44;;;;;;;23.52;5.90;;;;;;;26.22;34.92;100342.72;5018817;28;20052;-69
2021/08/01 03:22:11;;;;;;;16.77;5.20;;;;;;;26.23;34.88;100347.19;5029616;28;20041;-69
2021/08/01 03:24:39;;;;;;;12.63;5.57;;;;;;;26.31;34.72;100347.69;5029741;28;20044;-69
2021/08/01 03:27:07;;;;;;;17.02;5.03;;;;;;;26.33;34.91;100353.84;5029660;28;20041;-69
2021/08/01 03:29:34;;;;;;;17.80;5.07;;;;;;;26.33;34.98;100352.97;5030541;28;20037;-69
2021/08/01 03:32:02;;;;;;;15.18;4.82;;;;;;;26.30;34.92;100354.03;5013857;28;20049;-69
2021/08/01 03:34:30;;;;;;;17.25;4.50;;;;;;;26.33;34.75;100356.56;5028591;28;20056;-69
2021/08/01 03:36:58;;;;;;;20.38;5.03;;;;;;;26.34;35.05;100358.31;5014569;28;20546;-69
2021/08/01 03:39:25;;;;;;;18.30;5.18;;;;;;;26.35;35.20;100359.19;5012069;28;20131;-69
2021/08/01 03:41:52;;;;;;;14.68;4.07;;;;;;;26.33;35.18;100353.84;5013089;28;20049;-68
2021/08/01 03:44:19;;;;;;;12.93;4.78;;;;;;;26.35;35.31;100357.34;5011466;28;20046;-69
2021/08/01 03:46:47;;;;;;;19.60;4.88;;;;;;;26.38;35.03;100348.22;5011392;28;20049;-69
2021/08/01 03:49:14;;;;;;;17.65;4.70;;;;;;;26.46;35.15;100360.31;5011709;28;20050;-69
2021/08/01 03:51:43;;;;;;;19.20;5.30;;;;;;;26.55;34.53;100358.94;5022596;28;20046;-69
2021/08/01 03:54:10;;;;;;;16.88;5.03;;;;;;;26.56;34.89;100366.09;5030943;28;20053;-69
2021/08/01 03:56:40;;;;;;;17.02;4.68;;;;;;;26.64;34.95;100365.69;5028187;28;20099;-69
2021/08/01 03:59:10;;;;;;;23.77;5.60;;;;;;;26.67;34.93;100357.34;5017092;28;20125;-69
2021/08/01 04:01:38;;;;;;;12.38;4.70;;;;;;;26.83;34.63;100364.53;5028501;28;20049;-69
2021/08/01 04:04:05;;;;;;;14.00;4.80;;;;;;;26.98;34.64;100367.34;5030050;28;20045;-69
2021/08/01 04:06:34;;;;;;;16.58;4.95;;;;;;;27.07;34.60;100367.66;5029109;28;20048;-69
2021/08/01 04:09:04;;;;;;;16.15;4.90;;;;;;;27.17;34.41;100365.31;5028820;28;20038;-69
2021/08/01 04:11:32;;;;;;;14.02;4.65;;;;;;;27.31;34.44;100368.91;5011196;28;20046;-69
2021/08/01 04:13:59;;;;;;;22.77;4.95;;;;;;;27.47;34.40;100366.16;5030278;28;20053;-69
2021/08/01 04:16:27;;;;;;;13.88;5.00;;;;;;;27.54;34.62;100369.41;5028837;28;20056;-69
2021/08/01 04:18:54;;;;;;;17.98;5.03;;;;;;;27.63;34.65;100375.16;5030160;28;20053;-69
2021/08/01 04:21:21;;;;;;;14.77;5.15;;;;;;;27.79;34.60;100369.66;5029105;28;20514;-68
2021/08/01 04:23:48;;;;;;;16.67;5.07;;;;;;;27.99;34.65;100357.53;5020230;28;20042;-69
2021/08/01 04:26:17;;;;;;;14.63;5.00;;;;;;;28.13;34.41;100363.84;5028923;28;20410;-69
2021/08/01 04:28:44;;;;;;;13.55;4.60;;;;;;;28.22;34.42;100361.56;5030058;28;20052;-69
2021/08/01 04:31:12;;;;;;;21.95;5.63;;;;;;;28.40;34.05;100363.09;5030334;28;20053;-69
2021/08/01 04:33:39;;;;;;;15.32;4.80;;;;;;;28.60;33.66;100354.53;5030170;28;20045;-69
2021/08/01 04:36:06;;;;;;;20.05;5.13;;;;;;;28.75;33.77;100358.13;5028308;28;20037;-69
2021/08/01 04:38:34;;;;;;;19.33;5.85;;;;;;;28.92;33.89;100363.28;5026651;28;20048;-69
2021/08/01 04:41:01;;;;;;;18.30;4.78;;;;;;;29.10;33.87;100359.31;5030161;28;20446;-69
2021/08/01 04:43:30;;;;;;;17.40;5.10;;;;;;;29.32;33.35;100358.75;5028093;28;20050;-68
2021/08/01 04:45:58;;;;;;;16.60;4.88;;;;;;;29.52;33.29;100362.84;5029564;28;20048;-69
2021/08/01 04:48:25;;;;;;;22.48;6.10;;;;;;;29.70;33.67;100362.44;5025273;28;20500;-69
2021/08/01 04:50:52;;;;;;;17.55;5.75;;;;;;;29.87;32.94;100363.94;5011304;28;20049;-68
2021/08/01 04:53:20;;;;;;;22.10;6.03;;;;;;;30.09;32.83;100366.06;5010734;28;20046;-68
2021/08/01 04:55:47;;;;;;;14.27;4.63;;;;;;;30.29;32.68;100367.34;5016706;28;20049;-70
2021/08/01 04:58:14;;;;;;;14.55;5.25;;;;;;;30.53;32.17;100375.59;5028418;28;20483;-69
2021/08/01 05:00:43;;;;;;;11.63;4.38;;;;;;;30.79;31.77;100371.81;5027503;28;20040;-70
2021/08/01 05:03:11;;;;;;;18.38;5.80;;;;;;;30.99;31.38;100373.91;5033618;28;20052;-69
2021/08/01 05:05:38;;;;;;;20.55;5.57;;;;;;;31.23;31.45;100366.66;5022698;28;20054;-69
2021/08/01 05:08:07;;;;;;;21.88;5.40;;;;;;;31.47;31.09;100385.72;5018230;28;20061;-70
2021/08/01 05:10:34;;;;;;;17.88;4.82;;;;;;;31.70;30.60;100377.66;5029807;28;20042;-69
2021/08/01 05:13:06;;;;;;;18.00;4.95;;;;;;;31.93;30.33;100382.13;5024505;28;20041;-69
2021/08/01 05:15:33;;;;;;;16.95;4.70;;;;;;;32.13;30.35;100369.63;5017397;28;20049;-69
2021/08/01 05:18:02;;;;;;;17.73;4.97;;;;;;;32.41;30.26;100385.56;5017924;28;20034;-69
2021/08/01 05:20:30;;;;;;;16.92;5.05;;;;;;;32.66;30.31;100376.22;5023719;28;20053;-69
2021/08/01 05:22:58;;;;;;;19.80;5.30;;;;;;;32.92;30.46;100374.97;5033516;28;20030;-70
2021/08/01 05:25:25;;;;;;;25.48;6.22;;;;;;;33.10;29.47;100380.75;5027199;28;20037;-69
2021/08/01 05:27:53;;;;;;;19.13;5.32;;;;;;;33.25;29.20;100378.63;5021505;28;20038;-69
2021/08/01 05:30:20;;;;;;;19.42;5.15;;;;;;;33.49;28.74;100381.97;5020521;28;20057;-69
2021/08/01 05:32:47;;;;;;;19.75;6.15;;;;;;;33.83;28.83;100386.31;5033288;28;20058;-70
2021/08/01 05:35:16;;;;;;;19.60;4.72;;;;;;;34.13;28.57;100388.25;5027732;28;20048;-70
2021/08/01 05:37:43;;;;;;;18.63;5.65;;;;;;;34.45;28.29;100393.63;5015222;28;20045;-70
2021/08/01 05:40:11;;;;;;;20.90;4.95;;;;;;;34.66;28.63;100399.00;5030209;28;20040;-70
2021/08/01 05:42:39;;;;;;;19.88;4.85;;;;;;;34.87;28.26;100394.34;5024292;28;20033;-69
2021/08/01 05:45:08;;;;;;;14.73;4.78;;;;;;;35.09;27.83;100398.72;5031614;28;20057;-70
2021/08/01 05:47:38;;;;;;;15.00;4.57;;;;;;;35.12;27.71;100403.91;5028546;28;20046;-69
2021/08/01 05:50:08;;;;;;;19.42;5.88;;;;;;;35.16;28.13;100410.88;5027543;28;20087;-70
2021/08/01 05:52:37;;;;;;;19.45;4.85;;;;;;;35.46;28.29;100408.03;5032931;28;20411;-69
2021/08/01 05:55:06;;;;;;;22.80;5.15;;;;;;;35.77;27.92;100408.78;5030357;28;20038;-69
2021/08/01 05:57:33;;;;;;;15.52;4.78;;;;;;;36.06;27.56;100411.47;5025774;28;20038;-69
2021/08/01 06:00:01;;;;;;;22.42;5.57;;;;;;;36.33;27.40;100418.94;5025758;28;20058;-69
2021/08/01 06:02:28;;;;;;;12.52;4.40;;;;;;;36.52;27.21;100412.50;5030048;28;20053;-69
2021/08/01 06:04:55;;;;;;;17.00;4.90;;;;;;;36.69;26.79;100411.75;5031853;28;20038;-69
2021/08/01 06:07:22;;;;;;;18.95;5.07;;;;;;;36.91;26.03;100414.06;5032568;28;20049;-68
2021/08/01 06:09:51;;;;;;;16.17;4.80;;;;;;;37.15;25.32;100413.53;5031393;28;20041;-70
2021/08/01 06:12:18;;;;;;;14.63;4.20;;;;;;;37.22;25.11;100411.88;5031143;28;20042;-70
2021/08/01 06:14:49;;;;;;;17.25;4.60;;;;;;;37.54;24.66;100421.50;5031052;28;20395;-70
2021/08/01 06:17:16;;;;;;;26.60;6.07;;;;;;;37.82;23.90;100412.13;5031738;28;20091;-70
2021/08/01 06:19:44;;;;;;;20.00;4.35;;;;;;;38.05;23.75;100415.25;5031822;28;20061;-70
2021/08/01 06:22:11;;;;;;;24.45;5.22;;;;;;;37.99;23.98;100416.75;5031732;28;20052;-69
2021/08/01 06:24:39;;;;;;;15.20;4.88;;;;;;;38.15;23.50;100414.13;5031367;28;20462;-70
2021/08/01 06:27:08;;;;;;;15.00;4.03;;;;;;;38.37;22.83;100404.44;5024857;28;20442;-70
2021/08/01 06:29:35;;;;;;;17.08;4.05;;;;;;;38.40;22.29;100408.78;5031991;28;20454;-70
2021/08/01 06:32:02;;;;;;;11.88;4.80;;;;;;;38.52;21.15;100416.63;5031500;28;20052;-70
2021/08/01 06:34:30;;;;;;;16.25;4.18;;;;;;;38.64;20.06;100411.69;5014571;28;20037;-69
2021/08/01 06:36:57;;;;;;;20.23;4.32;;;;;;;38.78;19.14;100411.06;5012101;28;20038;-70
2021/08/01 06:39:24;;;;;;;17.98;4.38;;;;;;;38.89;18.85;100416.25;5015970;28;20038;-69
2021/08/01 06:41:52;;;;;;;16.33;4.10;;;;;;;38.94;18.39;100413.03;5028545;28;20041;-67
2021/08/01 06:44:20;;;;;;;21.02;4.70;;;;;;;39.06;18.23;100403.38;5029200;28;20435;-69
2021/08/01 06:46:48;;;;;;;16.55;4.05;;;;;;;38.89;18.06;100405.22;5028984;28;20045;-69
2021/08/01 06:49:15;;;;;;;14.23;4.10;;;;;;;38.88;18.06;100414.53;5029988;28;20068;-69
2021/08/01 06:51:42;;;;;;;13.93;4.18;;;;;;;38.94;18.17;100413.03;5027310;28;20053;-69
2021/08/01 06:54:09;;;;;;;13.48;4.20;;;;;;;39.03;17.73;100418.41;5030140;28;20049;-69
2021/08/01 06:56:37;;;;;;;19.13;4.97;;;;;;;39.07;17.68;100416.16;5031188;28;20104;-69
2021/08/01 06:59:04;;;;;;;14.70;3.92;;;;;;;39.18;17.73;100417.78;5028642;28;20037;-69
2021/08/01 07:01:33;;;;;;;15.52;4.00;;;;;;;39.30;17.68;100422.81;5030030;28;20053;-70
2021/08/01 07:04:02;;;;;;;23.63;4.45;;;;;;;39.43;17.70;100425.97;5029043;28;20068;-69
2021/08/01 07:06:30;;;;;;;15.68;4.50;;;;;;;39.65;17.32;100426.34;5023973;28;20137;-70
2021/08/01 07:08:57;;;;;;;16.13;4.25;;;;;;;39.83;17.30;100424.31;5018683;28;20037;-69
2021/08/01 07:11:24;;;;;;;18.80;4.63;;;;;;;39.91;17.02;100427.03;5028014;28;20045;-69
2021/08/01 07:13:51;;;;;;;14.32;4.00;;;;;;;39.91;17.19;100429.81;5026990;28;20124;-70
2021/08/01 07:16:19;;;;;;;22.58;5.55;;;;;;;40.00;17.14;100434.31;5028162;28;20050;-70
2021/08/01 07:18:47;;;;;;;14.13;3.88;;;;;;;40.05;17.04;100436.53;5027393;28;20072;-69
2021/08/01 07:21:15;;;;;;;11.52;4.45;;;;;;;40.05;17.20;100444.84;5028850;28;20498;-69
2021/08/01 07:23:42;;;;;;;16.90;3.97;;;;;;;40.12;17.04;100443.09;5029339;28;20053;-69
2021/08/01 07:26:10;;;;;;;18.73;4.28;;;;;;;40.23;17.15;100456.63;5028278;28;20048;-69
2021/08/01 07:28:38;;;;;;;13.40;4.10;;;;;;;40.13;16.90;100440.16;5029146;28;20048;-68
2021/08/01 07:31:05;;;;;;;18.85;4.40;;;;;;;40.00;17.17;100444.50;5025865;28;20073;-70
2021/08/01 07:33:32;;;;;;;20.15;4.68;;;;;;;40.03;17.21;100452.47;5029456;28;20392;-69
2021/08/01 07:36:01;;;;;;;20.23;5.45;;;;;;;40.05;17.38;100458.66;5028170;28;20038;-69
2021/08/01 07:38:28;;;;;;;19.77;4.78;;;;;;;40.24;17.35;100454.72;5027330;28;20491;-70
2021/08/01 07:40:55;;;;;;;14.50;4.53;;;;;;;40.33;17.05;100456.44;5027597;28;20034;-70
2021/08/01 07:43:23;;;;;;;13.70;4.45;;;;;;;40.41;16.99;100459.19;5029034;28;20049;-69
2021/08/01 07:45:50;;;;;;;19.63;4.63;;;;;;;40.53;17.02;100455.00;5020640;28;20046;-71
2021/08/01 07:48:17;;;;;;;19.63;4.45;;;;;;;40.57;16.87;100462.75;5014184;28;20057;-71
2021/08/01 07:50:44;;;;;;;17.27;5.18;;;;;;;40.78;16.86;100473.28;5029105;28;20053;-71
2021/08/01 07:53:13;;;;;;;25.15;4.43;;;;;;;41.00;16.83;100471.66;5029180;28;20045;-71
2021/08/01 07:55:42;;;;;;;22.25;5.40;;;;;;;41.07;16.94;100463.47;5028144;28;20053;-71
2021/08/01 07:58:09;;;;;;;16.70;4.90;;;;;;;41.00;16.68;100458.66;5028046;28;20121;-71
2021/08/01 08:00:36;;;;;;;16.63;4.10;;;;;;;40.98;16.53;100457.09;5027643;28;20048;-71
2021/08/01 08:03:04;;;;;;;12.98;3.67;;;;;;;41.11;16.42;100468.50;5028653;28;20087;-71
2021/08/01 08:05:31;;;;;;;18.90;4.63;;;;;;;41.06;16.62;100470.06;5028506;28;20056;-71
2021/08/01 08:07:58;;;;;;;23.77;5.90;;;;;;;41.09;16.86;100465.06;5022697;28;20506;-71
2021/08/01 08:10:27;;;;;;;19.33;4.65;;;;;;;41.00;16.48;100461.44;5024973;28;20125;-74
2021/08/01 08:12:54;;;;;;;17.42;4.45;;;;;;;41.03;16.36;100462.13;5025942;28;20065;-74
2021/08/01 08:15:22;;;;;;;20.45;6.10;;;;;;;41.17;16.11;100462.22;5027452;28;20459;-73
2021/08/01 08:17:49;;;;;;;14.70;4.00;;;;;;;41.25;16.40;100464.97;5026786;28;20045;-71
2021/08/01 08:20:16;;;;;;;12.38;3.90;;;;;;;41.40;16.28;100470.59;5026518;28;20048;-71
2021/08/01 08:22:44;;;;;;;17.80;4.72;;;;;;;41.51;16.19;100467.44;5026461;28;20049;-70
2021/08/01 08:25:12;;;;;;;16.08;4.60;;;;;;;41.49;15.86;100469.53;5024516;28;20438;-70
2021/08/01 08:27:41;;;;;;;13.80;4.80;;;;;;;41.38;16.10;100472.69;5026411;28;20030;-70
2021/08/01 08:30:09;;;;;;;17.23;4.05;;;;;;;41.49;15.91;100463.97;5018481;28;20068;-70
2021/08/01 08:32:37;;;;;;;16.92;4.75;;;;;;;41.49;15.68;100449.28;5021095;28;20044;-70
2021/08/01 08:35:05;;;;;;;10.95;3.92;;;;;;;41.50;15.81;100451.84;5022095;28;20053;-70
2021/08/01 08:37:32;;;;;;;14.98;3.90;;;;;;;41.61;15.82;100456.97;5026860;28;20041;-70
2021/08/01 08:39:59;;;;;;;22.52;4.88;;;;;;;41.69;15.77;100458.81;5030185;28;20037;-70
2021/08/01 08:42:27;;;;;;;20.55;4.82;;;;;;;41.80;15.54;100457.53;5028129;28;20044;-69
2021/08/01 08:44:56;;;;;;;15.20;4.25;;;;;;;41.90;15.35;100461.78;5028713;28;20046;-70
2021/08/01 08:47:26;;;;;;;16.58;4.43;;;;;;;41.77;15.44;100453.19;5029759;28;20053;-69
2021/08/01 08:49:57;;;;;;;14.70;4.03;;;;;;;42.06;15.45;100445.00;5024727;28;20060;-68
2021/08/01 08:52:27;;;;;;;14.77;4.03;;;;;;;42.30;15.19;100446.66;5030183;28;20033;-70
2021/08/01 08:54:59;;;;;;;19.35;5.00;;;;;;;42.39;15.14;100448.34;5028088;28;20050;-69
2021/08/01 08:57:31;;;;;;;19.23;3.83;;;;;;;42.13;15.03;100446.00;5029735;28;20441;-70
2021/08/01 09:00:04;;;;;;;13.13;4.03;;;;;;;42.11;15.11;100445.31;5030251;28;20041;-70
2021/08/01 09:02:31;;;;;;;13.80;4.28;;;;;;;42.00;15.08;100439.34;5028750;28;20056;-69
2021/08/01 09:04:59;;;;;;;20.55;5.05;;;;;;;41.74;15.50;100440.59;5025901;28;21602;-69
2021/08/01 09:07:26;;;;;;;15.43;4.70;;;;;;;41.82;15.63;100441.53;5029107;28;20402;-70
2021/08/01 09:09:54;;;;;;;15.27;4.78;;;;;;;41.86;15.43;100437.34;5030990;28;20090;-69
2021/08/01 09:12:21;;;;;;;14.55;4.30;;;;;;;42.03;15.28;100436.19;5029630;28;20053;-70
2021/08/01 09:14:49;;;;;;;14.77;4.88;;;;;;;42.11;15.86;100439.75;5029617;28;20049;-70
2021/08/01 09:17:35;;;;;;;17.00;4.28;;;;;;;42.34;15.41;100438.88;5029572;28;20042;-69
2021/08/01 09:20:17;;;;;;;17.52;5.30;;;;;;;42.28;15.30;100440.44;5027214;28;20491;-69
2021/08/01 09:23:06;;;;;;;18.40;5.83;;;;;;;42.24;15.32;100441.88;5029135;28;20044;-72
2021/08/01 09:25:36;;;;;;;18.95;4.82;;;;;;;42.27;15.40;100438.75;5027466;28;20049;-72
2021/08/01 09:28:15;;;;;;;14.35;5.25;;;;;;;42.15;15.55;100437.44;5026508;28;20049;-71
2021/08/01 09:30:49;;;;;;;20.33;4.65;;;;;;;42.21;15.27;100442.25;5028130;28;20053;-72
2021/08/01 09:33:31;;;;;;;16.05;4.43;;;;;;;42.39;15.20;100440.03;5027060;28;20045;-71
2021/08/01 09:36:09;;;;;;;16.70;4.15;;;;;;;42.53;15.25;100438.31;5025396;28;20041;-70
2021/08/01 09:38:48;;;;;;;17.75;5.25;;;;;;;42.30;15.28;100434.69;5028938;28;20041;-70
2021/08/01 09:41:17;;;;;;;17.70;5.05;;;;;;;42.28;15.30;100429.34;5027016;28;20049;-70
2021/08/01 09:43:46;;;;;;;14.73;4.72;;;;;;;42.31;15.05;100429.00;5028102;28;20045;-70
2021/08/01 09:46:13;;;;;;;16.35;4.80;;;;;;;42.03;15.33;100427.84;5029056;28;20050;-70
2021/08/01 09:48:42;;;;;;;15.95;4.00;;;;;;;41.93;15.49;100419.81;5024749;28;20045;-71
2021/08/01 09:51:11;;;;;;;22.15;4.22;;;;;;;41.93;15.43;100430.06;5028879;28;20060;-72
2021/08/01 09:53:40;;;;;;;19.52;5.55;;;;;;;41.99;15.55;100427.38;5027478;28;20037;-72
2021/08/01 09:56:19;;;;;;;18.95;4.43;;;;;;;42.21;15.12;100427.53;5028020;28;20080;-72
2021/08/01 09:58:48;;;;;;;25.00;4.50;;;;;;;42.20;15.23;100423.88;5028212;28;20535;-72
2021/08/01 10:01:15;;;;;;;19.63;4.28;;;;;;;42.06;15.40;100422.81;5028079;28;20058;-72
2021/08/01 10:03:45;;;;;;;15.13;4.13;;;;;;;42.16;15.28;100430.84;5028459;28;20064;-72
2021/08/01 10:06:14;;;;;;;20.77;4.90;;;;;;;42.12;15.40;100423.97;5026604;28;20037;-72
2021/08/01 10:08:44;;;;;;;10.63;4.47;;;;;;;42.05;15.00;100423.84;5028414;28;20041;-71
2021/08/01 10:11:14;;;;;;;18.00;4.47;;;;;;;41.98;15.17;100422.88;5027971;28;20030;-71
2021/08/01 10:13:43;;;;;;;16.08;4.93;;;;;;;41.86;15.29;100420.72;5027391;28;20407;-71
2021/08/01 10:16:11;;;;;;;15.80;4.50;;;;;;;41.91;15.23;100415.50;5027065;28;20038;-71
2021/08/01 10:18:40;;;;;;;15.85;4.63;;;;;;;41.94;15.29;100423.47;5026422;28;20725;-72
2021/08/01 10:21:10;;;;;;;19.30;4.20;;;;;;;41.94;15.51;100421.53;5027875;28;20045;-72
2021/08/01 10:23:40;;;;;;;13.98;3.90;;;;;;;41.91;15.47;100416.34;5024787;28;20048;-71
2021/08/01 10:26:10;;;;;;;12.52;3.80;;;;;;;41.47;15.36;100424.47;5026667;28;20201;-72
2021/08/01 10:28:42;;;;;;;14.90;4.20;;;;;;;40.97;15.76;100428.53;5024511;28;20045;-71
2021/08/01 10:31:12;;;;;;;17.40;4.88;;;;;;;40.77;16.27;100420.84;5027273;28;20029;-73
2021/08/01 10:33:47;;;;;;;17.05;4.90;;;;;;;40.99;16.12;100418.16;5030351;28;20520;-72
2021/08/01 10:36:25;;;;;;;22.48;4.90;;;;;;;41.14;16.18;100411.88;5030138;28;20241;-72
2021/08/01 10:38:53;;;;;;;14.10;4.97;;;;;;;41.30;16.15;100420.06;5028934;28;20048;-72
2021/08/01 10:41:24;;;;;;;17.58;4.65;;;;;;;41.45;15.87;100421.00;5021619;28;20045;-71
2021/08/01 10:43:55;;;;;;;17.67;5.97;;;;;;;41.41;15.94;100422.44;5026946;28;20120;-70
2021/08/01 10:46:23;;;;;;;16.55;4.75;;;;;;;41.36;15.76;100419.31;5027419;28;20049;-72
2021/08/01 10:48:51;;;;;;;19.52;4.80;;;;;;;41.36;15.78;100411.00;5023503;28;20103;-70
2021/08/01 10:51:20;;;;;;;13.70;4.35;;;;;;;41.33;15.69;100422.47;5027219;28;20407;-71
2021/08/01 10:53:47;;;;;;;14.45;5.22;;;;;;;41.36;15.91;100425.72;5026619;28;20493;-70
2021/08/01 10:56:41;;;;;;;19.05;5.03;;;;;;;41.19;15.97;100423.25;5025414;28;20514;-71
2021/08/01 10:59:09;;;;;;;20.25;4.55;;;;;;;41.19;15.83;100418.59;4991656;28;20049;-72
2021/08/01 11:02:09;;;;;;;19.23;5.22;;;;;;;40.99;16.22;100426.47;5027205;28;20044;-71
2021/08/01 11:04:37;;;;;;;20.50;4.85;;;;;;;41.12;15.71;100416.72;5026521;28;20045;-72
2021/08/01 11:07:06;;;;;;;17.70;5.22;;;;;;;41.19;15.76;100409.41;5029878;28;20060;-71
2021/08/01 11:09:34;;;;;;;18.88;4.70;;;;;;;41.13;16.20;100413.78;5027365;28;20068;-71
2021/08/01 11:12:32;;;;;;;17.67;4.85;;;;;;;41.16;16.27;100418.09;5026489;28;20051;-71
2021/08/01 11:15:01;;;;;;;18.08;4.80;;;;;;;41.37;16.25;100416.38;5026819;28;20088;-71
2021/08/01 11:18:08;;;;;;;19.55;4.97;;;;;;;41.48;15.92;100419.78;5028044;28;20117;-71
2021/08/01 11:20:52;;;;;;;14.73;5.47;;;;;;;41.37;15.72;100423.81;5019943;28;20576;-72
2021/08/01 11:23:21;;;;;;;16.17;5.32;;;;;;;41.47;15.73;100429.16;5027287;28;20053;-72
2021/08/01 11:26:10;;;;;;;15.55;5.38;;;;;;;41.82;15.91;100425.75;5025654;28;20045;-72
2021/08/01 11:28:37;;;;;;;19.52;4.55;;;;;;;41.97;15.78;100421.16;5024063;28;20048;-71